Terminal Aerodrome Forecast
Issued by NWS Green Bay, WI

Home | Current Version | Previous Version | Text Only | Print | Product List | Glossary On
Versions: 1 2 3 4 5 6 7 8 9 10 11 12 13 14 15
000
FTUS43 KGRB 261120
TAFGRB
TAF
KGRB 261120Z 2612/2712 05008KT P6SM BKN080
     FM261500 11009KT P6SM OVC050
      TEMPO 2615/2619 5SM TSRA BKN025CB
     FM261900 20009G17KT P6SM OVC040
     FM270300 VRB03KT 6SM RA OVC021
     FM270600 32007KT 4SM RA BR OVC010=

USA.gov is the U.S. government's official web portal to all federal, state and local government web resources and services.